sensor_id;sensor_type;location;lat;lon;timestamp;P1;durP1;ratioP1;P2;durP2;ratioP2
62796;SDS011;48839;48.546;-4.178;2022-08-19T00:00:19;12.15;;;5.13;;
62796;SDS011;48839;48.546;-4.178;2022-08-19T00:02:45;16.48;;;5.55;;
62796;SDS011;48839;48.546;-4.178;2022-08-19T00:05:12;16.70;;;5.82;;
62796;SDS011;48839;48.546;-4.178;2022-08-19T00:07:38;20.60;;;5.80;;
62796;SDS011;48839;48.546;-4.178;2022-08-19T00:10:05;16.40;;;5.07;;
62796;SDS011;48839;48.546;-4.178;2022-08-19T00:12:33;11.13;;;4.63;;
62796;SDS011;48839;48.546;-4.178;2022-08-19T00:14:58;16.33;;;5.30;;
62796;SDS011;48839;48.546;-4.178;2022-08-19T00:17:24;14.80;;;5.50;;
62796;SDS011;48839;48.546;-4.178;2022-08-19T00:19:50;14.68;;;6.13;;
62796;SDS011;48839;48.546;-4.178;2022-08-19T00:22:15;17.60;;;5.63;;
62796;SDS011;48839;48.546;-4.178;2022-08-19T00:24:43;17.00;;;5.85;;
62796;SDS011;48839;48.546;-4.178;2022-08-19T00:27:10;17.10;;;5.65;;
62796;SDS011;48839;48.546;-4.178;2022-08-19T00:29:36;15.02;;;5.35;;
62796;SDS011;48839;48.546;-4.178;2022-08-19T00:32:03;13.35;;;4.97;;
62796;SDS011;48839;48.546;-4.178;2022-08-19T00:34:29;16.50;;;5.82;;
62796;SDS011;48839;48.546;-4.178;2022-08-19T00:36:55;13.98;;;5.38;;
62796;SDS011;48839;48.546;-4.178;2022-08-19T00:39:21;17.88;;;5.57;;
62796;SDS011;48839;48.546;-4.178;2022-08-19T00:41:48;19.50;;;6.03;;
62796;SDS011;48839;48.546;-4.178;2022-08-19T00:44:21;16.48;;;6.03;;
62796;SDS011;48839;48.546;-4.178;2022-08-19T00:46:52;20.40;;;5.97;;
62796;SDS011;48839;48.546;-4.178;2022-08-19T00:49:23;14.90;;;5.93;;
62796;SDS011;48839;48.546;-4.178;2022-08-19T00:51:50;17.48;;;5.28;;
62796;SDS011;48839;48.546;-4.178;2022-08-19T00:54:20;13.55;;;5.00;;
62796;SDS011;48839;48.546;-4.178;2022-08-19T00:56:46;14.57;;;4.53;;
62796;SDS011;48839;48.546;-4.178;2022-08-19T00:59:13;23.25;;;5.72;;
62796;SDS011;48839;48.546;-4.178;2022-08-19T01:01:41;12.38;;;4.53;;
62796;SDS011;48839;48.546;-4.178;2022-08-19T01:04:08;14.27;;;4.68;;
62796;SDS011;48839;48.546;-4.178;2022-08-19T01:06:34;19.80;;;4.40;;
62796;SDS011;48839;48.546;-4.178;2022-08-19T01:09:02;15.23;;;4.90;;
62796;SDS011;48839;48.546;-4.178;2022-08-19T01:11:28;18.35;;;4.55;;
62796;SDS011;48839;48.546;-4.178;2022-08-19T01:13:56;15.40;;;4.53;;
62796;SDS011;48839;48.546;-4.178;2022-08-19T01:16:24;17.92;;;4.28;;
62796;SDS011;48839;48.546;-4.178;2022-08-19T01:18:52;11.80;;;4.18;;
62796;SDS011;48839;48.546;-4.178;2022-08-19T01:21:26;17.10;;;4.68;;
62796;SDS011;48839;48.546;-4.178;2022-08-19T01:23:59;15.07;;;4.45;;
62796;SDS011;48839;48.546;-4.178;2022-08-19T01:26:25;20.05;;;4.63;;
62796;SDS011;48839;48.546;-4.178;2022-08-19T01:28:55;18.17;;;4.95;;
62796;SDS011;48839;48.546;-4.178;2022-08-19T01:31:23;12.43;;;3.78;;
62796;SDS011;48839;48.546;-4.178;2022-08-19T01:33:51;11.05;;;4.30;;
62796;SDS011;48839;48.546;-4.178;2022-08-19T01:36:23;9.55;;;4.03;;
62796;SDS011;48839;48.546;-4.178;2022-08-19T01:41:18;12.23;;;4.18;;
62796;SDS011;48839;48.546;-4.178;2022-08-19T01:43:44;17.42;;;4.93;;
62796;SDS011;48839;48.546;-4.178;2022-08-19T01:46:10;14.02;;;4.18;;
62796;SDS011;48839;48.546;-4.178;2022-08-19T01:48:39;17.35;;;4.75;;
62796;SDS011;48839;48.546;-4.178;2022-08-19T01:51:06;16.15;;;3.97;;
62796;SDS011;48839;48.546;-4.178;2022-08-19T01:53:33;17.02;;;4.30;;
62796;SDS011;48839;48.546;-4.178;2022-08-19T01:55:59;20.08;;;3.85;;
62796;SDS011;48839;48.546;-4.178;2022-08-19T01:58:27;16.48;;;4.55;;
62796;SDS011;48839;48.546;-4.178;2022-08-19T02:00:58;19.80;;;4.55;;
62796;SDS011;48839;48.546;-4.178;2022-08-19T02:03:24;11.18;;;3.85;;
62796;SDS011;48839;48.546;-4.178;2022-08-19T02:05:54;19.73;;;4.22;;
62796;SDS011;48839;48.546;-4.178;2022-08-19T02:08:30;20.33;;;5.03;;
62796;SDS011;48839;48.546;-4.178;2022-08-19T02:10:58;14.77;;;4.45;;
62796;SDS011;48839;48.546;-4.178;2022-08-19T02:13:24;15.90;;;4.60;;
62796;SDS011;48839;48.546;-4.178;2022-08-19T02:15:50;16.13;;;4.07;;
62796;SDS011;48839;48.546;-4.178;2022-08-19T02:18:16;15.00;;;4.82;;
62796;SDS011;48839;48.546;-4.178;2022-08-19T02:20:42;12.57;;;3.88;;
62796;SDS011;48839;48.546;-4.178;2022-08-19T02:23:10;16.98;;;4.40;;
62796;SDS011;48839;48.546;-4.178;2022-08-19T02:25:37;18.20;;;4.50;;
62796;SDS011;48839;48.546;-4.178;2022-08-19T02:28:03;19.00;;;4.20;;
62796;SDS011;48839;48.546;-4.178;2022-08-19T02:30:29;15.65;;;4.78;;
62796;SDS011;48839;48.546;-4.178;2022-08-19T02:32:55;14.18;;;4.18;;
62796;SDS011;48839;48.546;-4.178;2022-08-19T02:35:20;20.77;;;3.63;;
62796;SDS011;48839;48.546;-4.178;2022-08-19T02:37:47;13.02;;;3.80;;
62796;SDS011;48839;48.546;-4.178;2022-08-19T02:40:32;11.98;;;4.30;;
62796;SDS011;48839;48.546;-4.178;2022-08-19T02:42:59;11.95;;;3.60;;
62796;SDS011;48839;48.546;-4.178;2022-08-19T02:45:34;16.25;;;3.70;;
62796;SDS011;48839;48.546;-4.178;2022-08-19T02:48:02;16.23;;;4.03;;
62796;SDS011;48839;48.546;-4.178;2022-08-19T02:50:29;18.58;;;4.05;;
62796;SDS011;48839;48.546;-4.178;2022-08-19T02:52:54;11.05;;;3.17;;
62796;SDS011;48839;48.546;-4.178;2022-08-19T02:55:20;12.45;;;3.53;;
62796;SDS011;48839;48.546;-4.178;2022-08-19T02:57:46;15.85;;;3.30;;
62796;SDS011;48839;48.546;-4.178;2022-08-19T03:00:12;13.27;;;3.42;;
62796;SDS011;48839;48.546;-4.178;2022-08-19T03:02:38;8.55;;;3.50;;
62796;SDS011;48839;48.546;-4.178;2022-08-19T03:05:05;14.80;;;4.07;;
62796;SDS011;48839;48.546;-4.178;2022-08-19T03:07:31;11.30;;;3.35;;
62796;SDS011;48839;48.546;-4.178;2022-08-19T03:09:56;13.63;;;3.22;;
62796;SDS011;48839;48.546;-4.178;2022-08-19T03:12:22;15.90;;;4.20;;
62796;SDS011;48839;48.546;-4.178;2022-08-19T03:14:47;11.48;;;3.50;;
62796;SDS011;48839;48.546;-4.178;2022-08-19T03:17:13;19.67;;;5.13;;
62796;SDS011;48839;48.546;-4.178;2022-08-19T03:19:39;18.55;;;3.65;;
62796;SDS011;48839;48.546;-4.178;2022-08-19T03:22:04;10.13;;;3.70;;
62796;SDS011;48839;48.546;-4.178;2022-08-19T03:24:31;16.20;;;3.42;;
62796;SDS011;48839;48.546;-4.178;2022-08-19T03:26:57;16.70;;;4.43;;
62796;SDS011;48839;48.546;-4.178;2022-08-19T03:29:24;12.93;;;3.75;;
62796;SDS011;48839;48.546;-4.178;2022-08-19T03:31:53;12.63;;;3.20;;
62796;SDS011;48839;48.546;-4.178;2022-08-19T03:34:23;17.10;;;3.55;;
62796;SDS011;48839;48.546;-4.178;2022-08-19T03:36:51;12.88;;;3.10;;
62796;SDS011;48839;48.546;-4.178;2022-08-19T03:39:19;13.93;;;3.47;;
62796;SDS011;48839;48.546;-4.178;2022-08-19T03:41:46;15.30;;;4.57;;
62796;SDS011;48839;48.546;-4.178;2022-08-19T03:44:15;12.25;;;2.80;;
62796;SDS011;48839;48.546;-4.178;2022-08-19T03:46:46;18.83;;;3.13;;
62796;SDS011;48839;48.546;-4.178;2022-08-19T03:49:13;9.00;;;2.88;;
62796;SDS011;48839;48.546;-4.178;2022-08-19T03:51:38;15.85;;;3.38;;
62796;SDS011;48839;48.546;-4.178;2022-08-19T03:54:05;15.25;;;3.10;;
62796;SDS011;48839;48.546;-4.178;2022-08-19T03:56:34;10.70;;;3.03;;
62796;SDS011;48839;48.546;-4.178;2022-08-19T03:59:01;7.88;;;2.53;;
62796;SDS011;48839;48.546;-4.178;2022-08-19T04:01:28;12.13;;;2.83;;
62796;SDS011;48839;48.546;-4.178;2022-08-19T04:03:57;16.83;;;3.03;;
62796;SDS011;48839;48.546;-4.178;2022-08-19T04:06:26;13.82;;;3.25;;
62796;SDS011;48839;48.546;-4.178;2022-08-19T04:08:55;11.80;;;3.15;;
62796;SDS011;48839;48.546;-4.178;2022-08-19T04:11:24;13.10;;;3.58;;
62796;SDS011;48839;48.546;-4.178;2022-08-19T04:13:52;17.23;;;3.22;;
62796;SDS011;48839;48.546;-4.178;2022-08-19T04:16:19;13.50;;;2.83;;
62796;SDS011;48839;48.546;-4.178;2022-08-19T04:18:47;13.13;;;3.20;;
62796;SDS011;48839;48.546;-4.178;2022-08-19T04:21:21;8.98;;;2.78;;
62796;SDS011;48839;48.546;-4.178;2022-08-19T04:23:48;20.02;;;3.75;;
62796;SDS011;48839;48.546;-4.178;2022-08-19T04:26:17;16.85;;;3.33;;
62796;SDS011;48839;48.546;-4.178;2022-08-19T04:28:46;11.40;;;2.45;;
62796;SDS011;48839;48.546;-4.178;2022-08-19T04:31:17;9.77;;;2.60;;
62796;SDS011;48839;48.546;-4.178;2022-08-19T04:33:45;12.57;;;2.83;;
62796;SDS011;48839;48.546;-4.178;2022-08-19T04:36:18;14.98;;;2.88;;
62796;SDS011;48839;48.546;-4.178;2022-08-19T04:38:49;14.77;;;2.72;;
62796;SDS011;48839;48.546;-4.178;2022-08-19T04:41:17;10.27;;;2.95;;
62796;SDS011;48839;48.546;-4.178;2022-08-19T04:44:01;12.40;;;2.92;;
62796;SDS011;48839;48.546;-4.178;2022-08-19T04:46:27;10.93;;;3.00;;
62796;SDS011;48839;48.546;-4.178;2022-08-19T04:48:55;13.00;;;3.10;;
62796;SDS011;48839;48.546;-4.178;2022-08-19T04:51:21;11.90;;;3.10;;
62796;SDS011;48839;48.546;-4.178;2022-08-19T04:53:48;12.63;;;3.58;;
62796;SDS011;48839;48.546;-4.178;2022-08-19T04:56:14;15.25;;;3.15;;
62796;SDS011;48839;48.546;-4.178;2022-08-19T04:58:42;11.50;;;3.08;;
62796;SDS011;48839;48.546;-4.178;2022-08-19T05:01:11;14.15;;;2.83;;
62796;SDS011;48839;48.546;-4.178;2022-08-19T05:03:43;12.23;;;2.50;;
62796;SDS011;48839;48.546;-4.178;2022-08-19T05:06:10;12.57;;;2.83;;
62796;SDS011;48839;48.546;-4.178;2022-08-19T05:08:38;10.25;;;2.58;;
62796;SDS011;48839;48.546;-4.178;2022-08-19T05:11:20;12.98;;;2.53;;
62796;SDS011;48839;48.546;-4.178;2022-08-19T05:13:49;15.43;;;3.08;;
62796;SDS011;48839;48.546;-4.178;2022-08-19T05:16:16;12.23;;;3.03;;
62796;SDS011;48839;48.546;-4.178;2022-08-19T05:18:43;11.82;;;2.80;;
62796;SDS011;48839;48.546;-4.178;2022-08-19T05:21:28;13.10;;;2.88;;
62796;SDS011;48839;48.546;-4.178;2022-08-19T05:24:13;16.92;;;3.17;;
62796;SDS011;48839;48.546;-4.178;2022-08-19T05:26:40;10.75;;;2.85;;
62796;SDS011;48839;48.546;-4.178;2022-08-19T05:29:08;13.98;;;3.35;;
62796;SDS011;48839;48.546;-4.178;2022-08-19T05:31:35;13.93;;;2.78;;
62796;SDS011;48839;48.546;-4.178;2022-08-19T05:34:02;13.45;;;3.10;;
62796;SDS011;48839;48.546;-4.178;2022-08-19T05:36:32;10.40;;;3.25;;
62796;SDS011;48839;48.546;-4.178;2022-08-19T05:39:00;15.15;;;3.50;;
62796;SDS011;48839;48.546;-4.178;2022-08-19T05:41:27;12.00;;;3.17;;
62796;SDS011;48839;48.546;-4.178;2022-08-19T05:43:54;10.68;;;3.67;;
62796;SDS011;48839;48.546;-4.178;2022-08-19T05:46:25;11.68;;;3.78;;
62796;SDS011;48839;48.546;-4.178;2022-08-19T05:48:51;10.68;;;3.60;;
62796;SDS011;48839;48.546;-4.178;2022-08-19T05:51:17;20.08;;;4.03;;
62796;SDS011;48839;48.546;-4.178;2022-08-19T05:53:43;13.15;;;3.55;;
62796;SDS011;48839;48.546;-4.178;2022-08-19T05:56:13;20.58;;;4.28;;
62796;SDS011;48839;48.546;-4.178;2022-08-19T05:58:41;11.82;;;3.83;;
62796;SDS011;48839;48.546;-4.178;2022-08-19T06:01:10;14.45;;;4.30;;
62796;SDS011;48839;48.546;-4.178;2022-08-19T06:03:38;10.70;;;4.40;;
62796;SDS011;48839;48.546;-4.178;2022-08-19T06:06:04;21.52;;;5.00;;
62796;SDS011;48839;48.546;-4.178;2022-08-19T06:08:32;10.85;;;4.15;;
62796;SDS011;48839;48.546;-4.178;2022-08-19T06:10:58;19.10;;;5.00;;
62796;SDS011;48839;48.546;-4.178;2022-08-19T06:13:45;18.80;;;4.55;;
62796;SDS011;48839;48.546;-4.178;2022-08-19T06:16:15;19.90;;;4.70;;
62796;SDS011;48839;48.546;-4.178;2022-08-19T06:18:47;18.98;;;4.82;;
62796;SDS011;48839;48.546;-4.178;2022-08-19T06:21:22;19.30;;;4.70;;
62796;SDS011;48839;48.546;-4.178;2022-08-19T06:23:52;13.88;;;5.22;;
62796;SDS011;48839;48.546;-4.178;2022-08-19T06:26:18;13.60;;;5.18;;
62796;SDS011;48839;48.546;-4.178;2022-08-19T06:28:46;19.00;;;4.65;;
62796;SDS011;48839;48.546;-4.178;2022-08-19T06:31:20;8.88;;;3.90;;
62796;SDS011;48839;48.546;-4.178;2022-08-19T06:33:48;16.42;;;4.47;;
62796;SDS011;48839;48.546;-4.178;2022-08-19T06:36:17;12.55;;;4.22;;
62796;SDS011;48839;48.546;-4.178;2022-08-19T06:38:45;10.30;;;4.00;;
62796;SDS011;48839;48.546;-4.178;2022-08-19T06:41:11;11.80;;;3.88;;
62796;SDS011;48839;48.546;-4.178;2022-08-19T06:43:36;9.52;;;4.03;;
62796;SDS011;48839;48.546;-4.178;2022-08-19T06:46:02;12.90;;;3.83;;
62796;SDS011;48839;48.546;-4.178;2022-08-19T06:48:29;8.45;;;4.10;;
62796;SDS011;48839;48.546;-4.178;2022-08-19T06:50:55;13.60;;;4.10;;
62796;SDS011;48839;48.546;-4.178;2022-08-19T06:53:21;12.10;;;3.90;;
62796;SDS011;48839;48.546;-4.178;2022-08-19T06:55:47;12.45;;;4.00;;
62796;SDS011;48839;48.546;-4.178;2022-08-19T06:58:12;13.57;;;3.92;;
62796;SDS011;48839;48.546;-4.178;2022-08-19T07:00:39;7.93;;;3.40;;
62796;SDS011;48839;48.546;-4.178;2022-08-19T07:03:05;9.45;;;3.47;;
62796;SDS011;48839;48.546;-4.178;2022-08-19T07:05:31;8.45;;;2.53;;
62796;SDS011;48839;48.546;-4.178;2022-08-19T07:07:56;7.90;;;2.72;;
62796;SDS011;48839;48.546;-4.178;2022-08-19T07:10:22;7.35;;;2.53;;
62796;SDS011;48839;48.546;-4.178;2022-08-19T07:12:48;3.45;;;2.30;;
62796;SDS011;48839;48.546;-4.178;2022-08-19T07:15:15;3.85;;;2.33;;
62796;SDS011;48839;48.546;-4.178;2022-08-19T07:17:41;5.80;;;2.38;;
62796;SDS011;48839;48.546;-4.178;2022-08-19T07:20:08;5.15;;;2.10;;
62796;SDS011;48839;48.546;-4.178;2022-08-19T07:22:35;6.90;;;2.00;;
62796;SDS011;48839;48.546;-4.178;2022-08-19T07:25:05;4.40;;;1.77;;
62796;SDS011;48839;48.546;-4.178;2022-08-19T07:27:32;4.13;;;1.58;;
62796;SDS011;48839;48.546;-4.178;2022-08-19T07:29:59;4.32;;;1.80;;
62796;SDS011;48839;48.546;-4.178;2022-08-19T07:32:25;3.13;;;1.58;;
62796;SDS011;48839;48.546;-4.178;2022-08-19T07:34:51;2.30;;;1.40;;
62796;SDS011;48839;48.546;-4.178;2022-08-19T07:37:17;1.50;;;1.10;;
62796;SDS011;48839;48.546;-4.178;2022-08-19T07:39:43;3.30;;;1.02;;
62796;SDS011;48839;48.546;-4.178;2022-08-19T07:42:09;4.03;;;1.23;;
62796;SDS011;48839;48.546;-4.178;2022-08-19T07:44:36;3.33;;;1.23;;
62796;SDS011;48839;48.546;-4.178;2022-08-19T07:47:03;1.35;;;1.13;;
62796;SDS011;48839;48.546;-4.178;2022-08-19T07:49:29;2.90;;;1.10;;
62796;SDS011;48839;48.546;-4.178;2022-08-19T07:51:56;0.68;;;0.68;;
62796;SDS011;48839;48.546;-4.178;2022-08-19T07:54:24;0.90;;;0.80;;
62796;SDS011;48839;48.546;-4.178;2022-08-19T07:56:52;1.27;;;0.47;;
62796;SDS011;48839;48.546;-4.178;2022-08-19T07:59:18;0.77;;;0.60;;
62796;SDS011;48839;48.546;-4.178;2022-08-19T08:01:46;0.60;;;0.60;;
62796;SDS011;48839;48.546;-4.178;2022-08-19T08:04:12;0.40;;;0.40;;
62796;SDS011;48839;48.546;-4.178;2022-08-19T08:06:57;3.60;;;0.50;;
62796;SDS011;48839;48.546;-4.178;2022-08-19T08:09:42;1.08;;;0.60;;
62796;SDS011;48839;48.546;-4.178;2022-08-19T08:12:10;1.58;;;0.40;;
62796;SDS011;48839;48.546;-4.178;2022-08-19T08:14:46;1.30;;;0.50;;
62796;SDS011;48839;48.546;-4.178;2022-08-19T08:17:15;0.98;;;0.63;;
62796;SDS011;48839;48.546;-4.178;2022-08-19T08:19:42;2.05;;;1.02;;
62796;SDS011;48839;48.546;-4.178;2022-08-19T08:22:09;2.22;;;0.93;;
62796;SDS011;48839;48.546;-4.178;2022-08-19T08:24:55;1.25;;;0.75;;
62796;SDS011;48839;48.546;-4.178;2022-08-19T08:27:23;1.35;;;1.00;;
62796;SDS011;48839;48.546;-4.178;2022-08-19T08:29:49;0.93;;;0.93;;
62796;SDS011;48839;48.546;-4.178;2022-08-19T08:32:15;2.05;;;1.00;;
62796;SDS011;48839;48.546;-4.178;2022-08-19T08:34:41;0.80;;;0.80;;
62796;SDS011;48839;48.546;-4.178;2022-08-19T08:37:07;0.77;;;0.77;;
62796;SDS011;48839;48.546;-4.178;2022-08-19T08:39:33;0.73;;;0.73;;
62796;SDS011;48839;48.546;-4.178;2022-08-19T08:44:58;2.03;;;1.20;;
62796;SDS011;48839;48.546;-4.178;2022-08-19T08:47:32;2.50;;;1.38;;
62796;SDS011;48839;48.546;-4.178;2022-08-19T08:50:05;2.45;;;2.15;;
62796;SDS011;48839;48.546;-4.178;2022-08-19T08:52:37;2.05;;;1.67;;
62796;SDS011;48839;48.546;-4.178;2022-08-19T08:55:12;5.55;;;2.78;;
62796;SDS011;48839;48.546;-4.178;2022-08-19T09:00:21;2.97;;;2.28;;
62796;SDS011;48839;48.546;-4.178;2022-08-19T09:02:54;5.40;;;2.05;;
62796;SDS011;48839;48.546;-4.178;2022-08-19T09:05:22;2.55;;;1.73;;
62796;SDS011;48839;48.546;-4.178;2022-08-19T09:07:55;5.07;;;2.35;;
62796;SDS011;48839;48.546;-4.178;2022-08-19T09:13:21;3.72;;;2.33;;
62796;SDS011;48839;48.546;-4.178;2022-08-19T09:16:03;6.63;;;3.13;;
62796;SDS011;48839;48.546;-4.178;2022-08-19T09:21:07;8.35;;;2.72;;
62796;SDS011;48839;48.546;-4.178;2022-08-19T09:23:33;10.77;;;2.90;;
62796;SDS011;48839;48.546;-4.178;2022-08-19T09:25:59;4.57;;;1.88;;
62796;SDS011;48839;48.546;-4.178;2022-08-19T09:28:26;4.65;;;1.88;;
62796;SDS011;48839;48.546;-4.178;2022-08-19T09:30:53;6.15;;;1.70;;
62796;SDS011;48839;48.546;-4.178;2022-08-19T09:33:19;5.68;;;2.00;;
62796;SDS011;48839;48.546;-4.178;2022-08-19T09:35:45;3.03;;;1.40;;
62796;SDS011;48839;48.546;-4.178;2022-08-19T09:38:11;7.25;;;1.80;;
62796;SDS011;48839;48.546;-4.178;2022-08-19T09:40:36;4.15;;;1.92;;
62796;SDS011;48839;48.546;-4.178;2022-08-19T09:43:03;5.97;;;2.67;;
62796;SDS011;48839;48.546;-4.178;2022-08-19T09:45:30;5.35;;;2.28;;
62796;SDS011;48839;48.546;-4.178;2022-08-19T09:47:56;4.93;;;1.48;;
62796;SDS011;48839;48.546;-4.178;2022-08-19T09:50:22;2.25;;;1.50;;
62796;SDS011;48839;48.546;-4.178;2022-08-19T09:52:48;4.97;;;1.70;;
62796;SDS011;48839;48.546;-4.178;2022-08-19T09:55:17;7.68;;;1.60;;
62796;SDS011;48839;48.546;-4.178;2022-08-19T09:57:43;7.30;;;1.92;;
62796;SDS011;48839;48.546;-4.178;2022-08-19T10:00:09;5.65;;;1.70;;
62796;SDS011;48839;48.546;-4.178;2022-08-19T10:02:35;5.20;;;1.63;;
62796;SDS011;48839;48.546;-4.178;2022-08-19T10:05:01;8.35;;;1.50;;
62796;SDS011;48839;48.546;-4.178;2022-08-19T10:07:46;5.57;;;1.60;;
62796;SDS011;48839;48.546;-4.178;2022-08-19T10:10:12;4.53;;;1.35;;
62796;SDS011;48839;48.546;-4.178;2022-08-19T10:12:38;3.47;;;1.60;;
62796;SDS011;48839;48.546;-4.178;2022-08-19T10:15:05;5.53;;;1.33;;
62796;SDS011;48839;48.546;-4.178;2022-08-19T10:17:31;5.38;;;1.38;;
62796;SDS011;48839;48.546;-4.178;2022-08-19T10:19:58;3.83;;;1.10;;
62796;SDS011;48839;48.546;-4.178;2022-08-19T10:22:24;8.55;;;1.58;;
62796;SDS011;48839;48.546;-4.178;2022-08-19T10:24:50;4.85;;;2.45;;
62796;SDS011;48839;48.546;-4.178;2022-08-19T10:27:17;5.50;;;1.83;;
62796;SDS011;48839;48.546;-4.178;2022-08-19T10:29:43;8.63;;;2.63;;
62796;SDS011;48839;48.546;-4.178;2022-08-19T10:32:09;8.73;;;2.08;;
62796;SDS011;48839;48.546;-4.178;2022-08-19T10:34:36;7.85;;;2.28;;
62796;SDS011;48839;48.546;-4.178;2022-08-19T10:37:03;6.30;;;2.45;;
62796;SDS011;48839;48.546;-4.178;2022-08-19T10:39:31;6.00;;;2.67;;
62796;SDS011;48839;48.546;-4.178;2022-08-19T10:41:57;5.20;;;1.60;;
62796;SDS011;48839;48.546;-4.178;2022-08-19T10:44:23;7.30;;;1.70;;
62796;SDS011;48839;48.546;-4.178;2022-08-19T10:46:50;4.65;;;1.17;;
62796;SDS011;48839;48.546;-4.178;2022-08-19T10:49:17;5.45;;;1.48;;
62796;SDS011;48839;48.546;-4.178;2022-08-19T10:51:44;4.90;;;1.50;;
62796;SDS011;48839;48.546;-4.178;2022-08-19T10:54:29;7.28;;;1.30;;
62796;SDS011;48839;48.546;-4.178;2022-08-19T10:57:14;7.30;;;1.45;;
62796;SDS011;48839;48.546;-4.178;2022-08-19T10:59:40;6.60;;;1.60;;
62796;SDS011;48839;48.546;-4.178;2022-08-19T11:02:07;10.57;;;1.70;;
62796;SDS011;48839;48.546;-4.178;2022-08-19T11:04:34;7.65;;;1.35;;
62796;SDS011;48839;48.546;-4.178;2022-08-19T11:07:01;6.78;;;1.55;;
62796;SDS011;48839;48.546;-4.178;2022-08-19T11:09:27;8.32;;;2.08;;
62796;SDS011;48839;48.546;-4.178;2022-08-19T11:11:53;7.15;;;1.40;;
62796;SDS011;48839;48.546;-4.178;2022-08-19T11:14:20;8.75;;;1.90;;
62796;SDS011;48839;48.546;-4.178;2022-08-19T11:16:47;5.53;;;1.25;;
62796;SDS011;48839;48.546;-4.178;2022-08-19T11:19:14;6.78;;;2.10;;
62796;SDS011;48839;48.546;-4.178;2022-08-19T11:21:44;6.60;;;1.23;;
62796;SDS011;48839;48.546;-4.178;2022-08-19T11:24:12;7.57;;;1.65;;
62796;SDS011;48839;48.546;-4.178;2022-08-19T11:26:40;7.30;;;1.30;;
62796;SDS011;48839;48.546;-4.178;2022-08-19T11:29:08;3.28;;;1.13;;
62796;SDS011;48839;48.546;-4.178;2022-08-19T11:31:38;5.05;;;1.40;;
62796;SDS011;48839;48.546;-4.178;2022-08-19T11:34:06;5.10;;;1.38;;
62796;SDS011;48839;48.546;-4.178;2022-08-19T11:36:33;5.95;;;1.15;;
62796;SDS011;48839;48.546;-4.178;2022-08-19T11:38:59;4.35;;;1.27;;
62796;SDS011;48839;48.546;-4.178;2022-08-19T11:41:25;7.68;;;1.40;;
62796;SDS011;48839;48.546;-4.178;2022-08-19T11:43:52;9.65;;;1.40;;
62796;SDS011;48839;48.546;-4.178;2022-08-19T11:46:20;9.85;;;1.40;;
62796;SDS011;48839;48.546;-4.178;2022-08-19T11:48:47;6.40;;;1.27;;
62796;SDS011;48839;48.546;-4.178;2022-08-19T11:51:15;5.75;;;1.20;;
62796;SDS011;48839;48.546;-4.178;2022-08-19T11:53:43;6.57;;;1.42;;
62796;SDS011;48839;48.546;-4.178;2022-08-19T11:56:09;6.93;;;1.40;;
62796;SDS011;48839;48.546;-4.178;2022-08-19T11:58:35;9.85;;;1.80;;
62796;SDS011;48839;48.546;-4.178;2022-08-19T12:01:04;8.35;;;1.33;;
62796;SDS011;48839;48.546;-4.178;2022-08-19T12:03:30;4.68;;;1.17;;
62796;SDS011;48839;48.546;-4.178;2022-08-19T12:05:56;5.22;;;1.27;;
62796;SDS011;48839;48.546;-4.178;2022-08-19T12:08:22;3.90;;;1.10;;
62796;SDS011;48839;48.546;-4.178;2022-08-19T12:10:48;5.18;;;1.67;;
62796;SDS011;48839;48.546;-4.178;2022-08-19T12:13:14;4.13;;;1.48;;
62796;SDS011;48839;48.546;-4.178;2022-08-19T12:15:43;9.20;;;1.08;;
62796;SDS011;48839;48.546;-4.178;2022-08-19T12:18:10;6.15;;;1.20;;
62796;SDS011;48839;48.546;-4.178;2022-08-19T12:20:37;7.18;;;1.20;;
62796;SDS011;48839;48.546;-4.178;2022-08-19T12:23:04;5.43;;;1.40;;
62796;SDS011;48839;48.546;-4.178;2022-08-19T12:25:31;8.75;;;1.70;;
62796;SDS011;48839;48.546;-4.178;2022-08-19T12:27:57;6.55;;;1.40;;
62796;SDS011;48839;48.546;-4.178;2022-08-19T12:30:24;9.80;;;1.45;;
62796;SDS011;48839;48.546;-4.178;2022-08-19T12:32:50;2.90;;;1.00;;
62796;SDS011;48839;48.546;-4.178;2022-08-19T12:35:17;5.63;;;0.90;;
62796;SDS011;48839;48.546;-4.178;2022-08-19T12:37:44;4.90;;;1.17;;
62796;SDS011;48839;48.546;-4.178;2022-08-19T12:40:11;5.57;;;1.23;;
62796;SDS011;48839;48.546;-4.178;2022-08-19T12:42:37;6.95;;;1.17;;
62796;SDS011;48839;48.546;-4.178;2022-08-19T12:45:07;6.35;;;1.40;;
62796;SDS011;48839;48.546;-4.178;2022-08-19T12:47:34;7.85;;;1.75;;
62796;SDS011;48839;48.546;-4.178;2022-08-19T12:50:00;6.97;;;2.17;;
62796;SDS011;48839;48.546;-4.178;2022-08-19T12:52:26;4.18;;;1.13;;
62796;SDS011;48839;48.546;-4.178;2022-08-19T12:54:56;4.85;;;1.23;;
62796;SDS011;48839;48.546;-4.178;2022-08-19T12:57:23;5.32;;;0.98;;
62796;SDS011;48839;48.546;-4.178;2022-08-19T12:59:51;3.60;;;0.80;;
62796;SDS011;48839;48.546;-4.178;2022-08-19T13:02:18;5.93;;;1.20;;
62796;SDS011;48839;48.546;-4.178;2022-08-19T13:04:44;4.93;;;1.02;;
62796;SDS011;48839;48.546;-4.178;2022-08-19T13:07:11;8.60;;;1.20;;
62796;SDS011;48839;48.546;-4.178;2022-08-19T13:09:37;7.50;;;1.20;;
62796;SDS011;48839;48.546;-4.178;2022-08-19T13:12:06;2.88;;;1.00;;
62796;SDS011;48839;48.546;-4.178;2022-08-19T13:14:37;6.25;;;1.15;;
62796;SDS011;48839;48.546;-4.178;2022-08-19T13:17:05;6.38;;;1.50;;
62796;SDS011;48839;48.546;-4.178;2022-08-19T13:19:31;5.25;;;1.10;;
62796;SDS011;48839;48.546;-4.178;2022-08-19T13:21:57;2.75;;;0.85;;
62796;SDS011;48839;48.546;-4.178;2022-08-19T13:24:23;4.10;;;0.90;;
62796;SDS011;48839;48.546;-4.178;2022-08-19T13:26:49;5.32;;;1.20;;
62796;SDS011;48839;48.546;-4.178;2022-08-19T13:29:15;5.03;;;1.38;;
62796;SDS011;48839;48.546;-4.178;2022-08-19T13:32:00;3.88;;;1.20;;
62796;SDS011;48839;48.546;-4.178;2022-08-19T13:34:44;3.58;;;1.10;;
62796;SDS011;48839;48.546;-4.178;2022-08-19T13:37:11;4.00;;;0.95;;
62796;SDS011;48839;48.546;-4.178;2022-08-19T13:39:37;5.03;;;1.10;;
62796;SDS011;48839;48.546;-4.178;2022-08-19T13:42:03;22.73;;;2.35;;
62796;SDS011;48839;48.546;-4.178;2022-08-19T13:44:31;9.63;;;1.27;;
62796;SDS011;48839;48.546;-4.178;2022-08-19T13:47:01;6.57;;;1.33;;
62796;SDS011;48839;48.546;-4.178;2022-08-19T13:49:30;8.18;;;1.50;;
62796;SDS011;48839;48.546;-4.178;2022-08-19T13:51:56;4.53;;;1.02;;
62796;SDS011;48839;48.546;-4.178;2022-08-19T13:54:22;4.38;;;1.10;;
62796;SDS011;48839;48.546;-4.178;2022-08-19T13:56:48;3.97;;;1.08;;
62796;SDS011;48839;48.546;-4.178;2022-08-19T13:59:14;5.32;;;1.38;;
62796;SDS011;48839;48.546;-4.178;2022-08-19T14:01:41;7.55;;;1.45;;
62796;SDS011;48839;48.546;-4.178;2022-08-19T14:04:07;7.22;;;1.30;;
62796;SDS011;48839;48.546;-4.178;2022-08-19T14:06:33;7.53;;;1.35;;
62796;SDS011;48839;48.546;-4.178;2022-08-19T14:08:59;5.53;;;1.33;;
62796;SDS011;48839;48.546;-4.178;2022-08-19T14:11:27;5.10;;;1.23;;
62796;SDS011;48839;48.546;-4.178;2022-08-19T14:13:53;5.88;;;1.38;;
62796;SDS011;48839;48.546;-4.178;2022-08-19T14:16:19;5.53;;;0.98;;
62796;SDS011;48839;48.546;-4.178;2022-08-19T14:18:46;6.88;;;1.20;;
62796;SDS011;48839;48.546;-4.178;2022-08-19T14:21:17;5.20;;;1.23;;
62796;SDS011;48839;48.546;-4.178;2022-08-19T14:23:43;5.80;;;1.30;;
62796;SDS011;48839;48.546;-4.178;2022-08-19T14:26:15;5.45;;;1.55;;
62796;SDS011;48839;48.546;-4.178;2022-08-19T14:28:41;4.18;;;1.17;;
62796;SDS011;48839;48.546;-4.178;2022-08-19T14:31:08;3.97;;;1.33;;
62796;SDS011;48839;48.546;-4.178;2022-08-19T14:33:35;3.58;;;1.10;;
62796;SDS011;48839;48.546;-4.178;2022-08-19T14:36:01;5.28;;;1.30;;
62796;SDS011;48839;48.546;-4.178;2022-08-19T14:38:27;6.05;;;1.35;;
62796;SDS011;48839;48.546;-4.178;2022-08-19T14:40:56;5.53;;;1.17;;
62796;SDS011;48839;48.546;-4.178;2022-08-19T14:43:22;8.52;;;1.50;;
62796;SDS011;48839;48.546;-4.178;2022-08-19T14:45:48;7.28;;;1.85;;